createdAt,value
2023-11-25T00:01:34.417Z,91.92
2023-11-25T00:04:05.376Z,92.01
2023-11-25T00:06:36.832Z,91.97
2023-11-25T00:09:09.815Z,92.06
2023-11-25T00:11:43.361Z,92.01
2023-11-25T00:14:14.107Z,91.92
2023-11-25T00:16:44.717Z,91.82
2023-11-25T00:19:16.282Z,91.91
2023-11-25T00:21:47.439Z,91.95
2023-11-25T00:24:18.002Z,91.96
2023-11-25T00:26:48.646Z,92.08
2023-11-25T00:29:19.337Z,91.98
2023-11-25T00:31:52.695Z,91.96
2023-11-25T00:34:25.613Z,91.99
2023-11-25T00:36:56.487Z,92.10
2023-11-25T00:39:28.400Z,91.67
2023-11-25T00:41:59.350Z,91.71
2023-11-25T00:44:32.542Z,91.61
2023-11-25T00:47:04.835Z,91.52
2023-11-25T00:49:37.040Z,91.47
2023-11-25T00:52:08.884Z,91.50
2023-11-25T00:54:40.526Z,91.33
2023-11-25T00:57:11.172Z,91.28
2023-11-25T00:59:41.625Z,91.33
2023-11-25T01:02:12.205Z,91.21
2023-11-25T01:04:43.948Z,91.39
2023-11-25T01:07:14.863Z,91.40
2023-11-25T01:09:45.360Z,91.22
2023-11-25T01:12:15.901Z,91.30
2023-11-25T01:17:48.633Z,91.05
2023-11-25T01:20:20.356Z,91.18
2023-11-25T01:22:51.543Z,91.25
2023-11-25T01:25:22.405Z,91.30
2023-11-25T01:27:54.733Z,91.23
2023-11-25T01:30:25.532Z,91.26
2023-11-25T01:32:56.181Z,91.29
2023-11-25T01:35:27.289Z,90.85
2023-11-25T01:37:57.783Z,90.71
2023-11-25T01:40:28.523Z,90.68
2023-11-25T01:42:59.695Z,90.49
2023-11-25T01:45:30.316Z,90.27
2023-11-25T01:48:04.133Z,90.32
2023-11-25T01:50:39.247Z,90.16
2023-11-25T01:53:11.172Z,90.18
2023-11-25T01:55:45.769Z,89.98
2023-11-25T01:58:17.618Z,90.04
2023-11-25T02:00:50.131Z,90.05
2023-11-25T02:03:20.936Z,89.80
2023-11-25T02:05:51.477Z,89.40
2023-11-25T02:08:23.979Z,89.50
2023-11-25T02:10:55.127Z,89.78
2023-11-25T02:13:27.958Z,89.22
2023-11-25T02:15:57.974Z,89.70
2023-11-25T02:18:28.606Z,89.55
2023-11-25T02:20:59.898Z,89.17
2023-11-25T02:23:32.669Z,89.06
2023-11-25T02:26:05.407Z,89.09
2023-11-25T02:28:36.955Z,89.14
2023-11-25T02:31:09.440Z,89.23
2023-11-25T02:33:41.430Z,89.22
2023-11-25T02:36:15.844Z,89.37
2023-11-25T02:38:46.911Z,89.22
2023-11-25T02:41:19.448Z,89.72
2023-11-25T02:43:50.137Z,89.02
2023-11-25T02:46:20.838Z,89.15
2023-11-25T02:48:52.182Z,89.10
2023-11-25T02:51:22.959Z,89.04
2023-11-25T02:53:55.663Z,88.93
2023-11-25T02:56:26.851Z,89.29
2023-11-25T02:58:58.598Z,89.25
2023-11-25T03:01:30.963Z,89.45
2023-11-25T03:04:03.613Z,89.47
2023-11-25T03:06:34.301Z,89.72
2023-11-25T03:09:06.637Z,89.60
2023-11-25T03:11:37.662Z,89.91
2023-11-25T03:14:08.958Z,90.02
2023-11-25T03:16:40.469Z,90.01
2023-11-25T03:19:12.107Z,89.90
2023-11-25T03:21:44.706Z,90.00
2023-11-25T03:24:17.249Z,89.89
2023-11-25T03:26:48.136Z,90.11
2023-11-25T03:29:19.910Z,89.77
2023-11-25T03:31:50.991Z,89.90
2023-11-25T03:34:22.611Z,90.04
2023-11-25T03:36:53.465Z,90.14
2023-11-25T03:39:24.047Z,90.19
2023-11-25T03:41:54.591Z,90.26
2023-11-25T03:44:26.063Z,90.15
2023-11-25T03:46:56.659Z,90.33
2023-11-25T03:49:27.734Z,90.48
2023-11-25T03:51:59.274Z,90.30
2023-11-25T03:54:29.880Z,90.36
2023-11-25T03:57:00.879Z,90.36
2023-11-25T03:59:31.303Z,90.43
2023-11-25T04:02:02.807Z,90.54
2023-11-25T04:04:33.610Z,90.63
2023-11-25T04:07:04.322Z,90.81
2023-11-25T04:09:35.288Z,90.60
2023-11-25T04:12:06.293Z,90.74
2023-11-25T04:14:36.763Z,90.75
2023-11-25T04:17:12.822Z,90.52
2023-11-25T04:19:42.404Z,90.64
2023-11-25T04:22:13.258Z,90.67
2023-11-25T04:24:43.839Z,90.75
2023-11-25T04:27:14.362Z,90.43
2023-11-25T04:29:44.985Z,90.58
2023-11-25T04:32:15.587Z,90.58
2023-11-25T04:34:46.132Z,90.58
2023-11-25T04:37:17.439Z,90.75
2023-11-25T04:39:48.004Z,90.72
2023-11-25T04:42:19.081Z,90.70
2023-11-25T04:44:51.525Z,90.61
2023-11-25T04:47:23.936Z,90.59
2023-11-25T04:49:54.526Z,90.51
2023-11-25T04:52:25.922Z,90.44
2023-11-25T04:54:56.474Z,90.36
2023-11-25T04:57:27.028Z,90.29
2023-11-25T04:59:57.618Z,90.35
2023-11-25T05:02:28.175Z,90.19
2023-11-25T05:04:58.770Z,90.26
2023-11-25T05:07:29.299Z,90.34
2023-11-25T05:10:00.063Z,90.32
2023-11-25T05:12:30.849Z,90.58
2023-11-25T05:15:01.430Z,90.31
2023-11-25T05:17:32.424Z,90.22
2023-11-25T05:20:03.304Z,90.26
2023-11-25T05:22:34.479Z,90.10
2023-11-25T05:25:06.739Z,89.93
2023-11-25T05:27:38.856Z,89.87
2023-11-25T05:30:13.176Z,89.74
2023-11-25T05:32:44.700Z,89.76
2023-11-25T05:35:15.922Z,89.79
2023-11-25T05:37:46.586Z,89.73
2023-11-25T05:40:17.549Z,89.84
2023-11-25T05:42:52.598Z,90.01
2023-11-25T05:45:24.878Z,90.34
2023-11-25T05:47:55.788Z,90.12
2023-11-25T05:50:28.112Z,90.15
2023-11-25T05:52:58.711Z,90.24
2023-11-25T05:55:30.884Z,90.03
2023-11-25T05:58:02.652Z,89.85
2023-11-25T06:00:33.381Z,89.81
2023-11-25T06:03:05.493Z,89.91
2023-11-25T06:05:36.800Z,89.98
2023-11-25T06:08:07.319Z,90.25
2023-11-25T06:10:38.684Z,89.91
2023-11-25T06:13:10.342Z,89.97
2023-11-25T06:15:41.066Z,89.91
2023-11-25T06:18:13.425Z,89.91
2023-11-25T06:20:44.969Z,90.08
2023-11-25T06:23:16.039Z,90.08
2023-11-25T06:25:46.772Z,90.25
2023-11-25T06:28:18.528Z,89.94
2023-11-25T06:30:50.914Z,89.83
2023-11-25T06:33:23.393Z,89.69
2023-11-25T06:35:58.181Z,89.89
2023-11-25T06:38:28.716Z,89.84
2023-11-25T06:40:59.730Z,89.85
2023-11-25T06:43:30.918Z,89.84
2023-11-25T06:46:01.572Z,90.00
2023-11-25T06:48:33.680Z,89.73
2023-11-25T06:51:04.925Z,90.03
2023-11-25T06:53:36.518Z,90.17
2023-11-25T06:56:16.761Z,90.14
2023-11-25T06:58:48.021Z,90.15
2023-11-25T07:01:23.159Z,90.18
2023-11-25T07:03:55.251Z,90.05
2023-11-25T07:06:25.998Z,89.88
2023-11-25T07:08:59.879Z,89.79
2023-11-25T07:11:32.696Z,89.53
2023-11-25T07:14:03.727Z,89.78
2023-11-25T07:16:35.666Z,89.50
2023-11-25T07:19:09.232Z,89.15
2023-11-25T07:21:40.206Z,89.29
2023-11-25T07:24:13.655Z,89.16
2023-11-25T07:26:47.633Z,88.82
2023-11-25T07:29:19.247Z,88.66
2023-11-25T07:31:49.914Z,88.61
2023-11-25T07:34:20.454Z,88.78
2023-11-25T07:36:51.242Z,88.18
2023-11-25T07:39:23.569Z,88.04
2023-11-25T07:41:58.821Z,88.45
2023-11-25T07:44:35.301Z,88.37
2023-11-25T07:47:06.985Z,88.22
2023-11-25T07:49:38.130Z,88.43
2023-11-25T07:52:11.567Z,88.42
2023-11-25T07:54:44.075Z,88.44
2023-11-25T07:57:14.683Z,88.33
2023-11-25T07:59:46.907Z,88.43
2023-11-25T08:02:20.261Z,88.15
2023-11-25T08:04:53.109Z,88.21
2023-11-25T08:07:24.925Z,88.33
2023-11-25T08:09:55.725Z,88.09
2023-11-25T08:12:26.378Z,88.07
2023-11-25T08:14:56.961Z,87.87
2023-11-25T08:17:28.439Z,88.03
2023-11-25T08:20:01.365Z,87.68
2023-11-25T08:22:33.543Z,86.89
2023-11-25T08:25:07.380Z,86.30
2023-11-25T08:27:40.692Z,86.06
2023-11-25T08:30:14.132Z,86.07
2023-11-25T08:32:46.435Z,86.15
2023-11-25T08:35:17.725Z,86.01
2023-11-25T08:37:49.966Z,85.64
2023-11-25T08:40:24.659Z,85.87
2023-11-25T08:42:56.757Z,86.07
2023-11-25T08:45:29.503Z,86.28
2023-11-25T08:48:00.673Z,85.91
2023-11-25T08:50:31.171Z,85.14
2023-11-25T08:53:03.819Z,85.15
2023-11-25T08:55:36.558Z,84.43
2023-11-25T08:58:08.600Z,83.49
2023-11-25T09:00:39.267Z,82.37
2023-11-25T09:03:11.200Z,81.60
2023-11-25T09:05:42.290Z,80.32
2023-11-25T09:08:13.080Z,80.19
2023-11-25T09:10:46.623Z,79.10
2023-11-25T09:13:19.766Z,79.66
2023-11-25T09:15:51.665Z,79.12
2023-11-25T09:18:22.289Z,78.94
2023-11-25T09:20:53.689Z,78.94
2023-11-25T09:23:25.633Z,79.72
2023-11-25T09:25:56.537Z,79.15
2023-11-25T09:28:28.850Z,79.56
2023-11-25T09:30:59.992Z,79.60
2023-11-25T09:33:33.475Z,79.51
2023-11-25T09:36:08.665Z,79.85
2023-11-25T09:38:40.774Z,79.78
2023-11-25T09:41:13.038Z,80.38
2023-11-25T09:43:44.582Z,79.33
2023-11-25T09:46:17.599Z,79.78
2023-11-25T09:48:48.447Z,79.57
2023-11-25T09:51:23.496Z,80.15
2023-11-25T09:53:58.653Z,80.37
2023-11-25T09:56:29.913Z,80.44
2023-11-25T09:59:01.397Z,80.98
2023-11-25T10:01:33.510Z,80.58
2023-11-25T10:04:04.287Z,80.87
2023-11-25T10:06:37.016Z,80.80
2023-11-25T10:09:14.596Z,80.65
2023-11-25T10:11:45.161Z,80.56
2023-11-25T10:14:18.654Z,79.61
2023-11-25T10:16:50.470Z,80.80
2023-11-25T10:19:23.911Z,80.44
2023-11-25T10:21:57.468Z,79.67
2023-11-25T10:24:31.057Z,79.23
2023-11-25T10:27:02.707Z,78.49
2023-11-25T10:29:33.826Z,78.97
2023-11-25T10:32:07.600Z,78.81
2023-11-25T10:34:38.237Z,78.94
2023-11-25T10:37:13.653Z,79.16
2023-11-25T10:39:45.350Z,79.15
2023-11-25T10:42:22.861Z,79.76
2023-11-25T10:44:54.137Z,79.58
2023-11-25T10:47:32.192Z,79.90
2023-11-25T10:50:02.881Z,79.71
2023-11-25T10:52:37.377Z,79.89
2023-11-25T10:55:10.508Z,79.30
2023-11-25T10:57:42.778Z,79.29
2023-11-25T11:00:15.429Z,79.25
2023-11-25T11:02:54.434Z,79.10
2023-11-25T11:05:40.685Z,79.32
2023-11-25T11:08:18.972Z,79.79
2023-11-25T11:11:00.151Z,79.44
2023-11-25T11:13:39.589Z,79.40
2023-11-25T11:16:13.720Z,79.91
2023-11-25T11:18:48.660Z,79.96
2023-11-25T11:21:21.452Z,80.08
2023-11-25T11:23:56.253Z,80.13
2023-11-25T11:26:33.314Z,80.96
2023-11-25T11:29:23.687Z,81.44
2023-11-25T11:32:08.365Z,81.35
2023-11-25T11:34:40.533Z,82.38
2023-11-25T11:37:11.692Z,83.08
2023-11-25T11:39:59.089Z,83.15
2023-11-25T11:42:33.705Z,83.76
2023-11-25T11:45:25.639Z,84.17
2023-11-25T11:48:00.921Z,83.63
2023-11-25T11:50:36.605Z,84.41
2023-11-25T11:53:18.478Z,84.20
2023-11-25T11:56:00.387Z,84.06
2023-11-25T11:58:32.119Z,84.20
2023-11-25T12:01:06.681Z,84.26
2023-11-25T12:03:39.683Z,84.09
2023-11-25T12:06:12.112Z,83.93
2023-11-25T12:08:42.593Z,84.04
2023-11-25T12:11:15.378Z,84.13
2023-11-25T12:13:45.990Z,84.55
2023-11-25T12:16:16.533Z,85.24
2023-11-25T12:18:47.093Z,84.58
2023-11-25T12:21:18.708Z,85.28
2023-11-25T12:23:53.822Z,85.35
2023-11-25T12:26:28.977Z,86.09
2023-11-25T12:29:02.983Z,86.38
2023-11-25T12:31:35.684Z,85.96
2023-11-25T12:34:06.972Z,86.37
2023-11-25T12:36:37.658Z,85.71
2023-11-25T12:39:09.920Z,86.51
2023-11-25T12:41:45.670Z,86.79
2023-11-25T12:44:17.673Z,86.79
2023-11-25T12:47:07.516Z,86.84
2023-11-25T12:49:38.406Z,86.45
2023-11-25T12:52:11.169Z,86.47
2023-11-25T12:54:45.813Z,86.25
2023-11-25T12:57:18.081Z,86.81
2023-11-25T12:59:48.595Z,86.67
2023-11-25T13:02:22.081Z,87.17
2023-11-25T13:04:52.728Z,87.23
2023-11-25T13:07:37.410Z,87.14
2023-11-25T13:10:09.280Z,87.18
2023-11-25T13:12:39.802Z,87.10
2023-11-25T13:15:10.556Z,87.41
2023-11-25T13:17:42.038Z,87.26
2023-11-25T13:20:13.627Z,87.90
2023-11-25T13:22:45.760Z,87.72
2023-11-25T13:25:17.305Z,88.04
2023-11-25T13:27:48.990Z,88.01
2023-11-25T13:30:22.077Z,87.46
2023-11-25T13:32:55.535Z,87.17
2023-11-25T13:35:26.083Z,87.33
2023-11-25T13:37:59.180Z,87.48
2023-11-25T13:40:31.770Z,87.88
2023-11-25T13:43:05.440Z,87.76
2023-11-25T13:45:36.452Z,87.95
2023-11-25T13:48:08.389Z,87.82
2023-11-25T13:50:39.106Z,87.80
2023-11-25T13:53:14.979Z,87.54
2023-11-25T13:55:48.047Z,87.73
2023-11-25T13:58:18.546Z,88.03
2023-11-25T14:00:49.284Z,88.38
2023-11-25T14:03:20.359Z,88.49
2023-11-25T14:05:51.193Z,88.56
2023-11-25T14:08:27.688Z,88.44
2023-11-25T14:10:59.498Z,88.00
2023-11-25T14:13:32.093Z,87.78
2023-11-25T14:16:04.377Z,87.77
2023-11-25T14:18:36.562Z,88.03
2023-11-25T14:21:07.759Z,88.26
2023-11-25T14:23:39.622Z,88.40
2023-11-25T14:26:11.329Z,88.85
2023-11-25T14:28:42.763Z,88.46
2023-11-25T14:31:17.255Z,88.60
2023-11-25T14:33:52.824Z,88.85
2023-11-25T14:36:23.777Z,88.79
2023-11-25T14:38:54.424Z,88.81
2023-11-25T14:41:26.332Z,88.97
2023-11-25T14:43:57.215Z,88.91
2023-11-25T14:46:29.028Z,89.12
2023-11-25T14:49:00.548Z,89.27
2023-11-25T14:51:31.637Z,89.57
2023-11-25T14:54:02.190Z,89.46
2023-11-25T14:56:35.415Z,89.28
2023-11-25T14:59:07.371Z,89.20
2023-11-25T15:01:39.574Z,89.04
2023-11-25T15:04:12.028Z,89.00
2023-11-25T15:06:44.902Z,88.57
2023-11-25T15:09:18.811Z,88.68
2023-11-25T15:11:49.826Z,88.41
2023-11-25T15:14:22.959Z,88.66
2023-11-25T15:16:54.432Z,88.38
2023-11-25T15:19:25.762Z,88.49
2023-11-25T15:21:58.469Z,88.46
2023-11-25T15:24:29.166Z,88.72
2023-11-25T15:27:03.843Z,88.41
2023-11-25T15:29:33.653Z,88.62
2023-11-25T15:32:05.831Z,88.81
2023-11-25T15:34:39.306Z,88.60
2023-11-25T15:37:10.590Z,88.66
2023-11-25T15:39:42.078Z,88.50
2023-11-25T15:42:14.721Z,88.50
2023-11-25T15:44:47.034Z,88.23
2023-11-25T15:47:19.388Z,88.35
2023-11-25T15:49:53.367Z,88.50
2023-11-25T15:52:25.483Z,88.04
2023-11-25T15:54:57.391Z,88.04
2023-11-25T15:57:30.009Z,88.04
2023-11-25T16:00:00.780Z,88.30
2023-11-25T16:02:31.514Z,88.21
2023-11-25T16:05:04.381Z,88.16
2023-11-25T16:07:35.189Z,88.33
2023-11-25T16:10:11.253Z,88.32
2023-11-25T16:12:42.381Z,88.40
2023-11-25T16:15:14.795Z,88.27
2023-11-25T16:17:47.359Z,88.17
2023-11-25T16:20:19.126Z,88.05
2023-11-25T16:22:50.759Z,88.25
2023-11-25T16:25:21.362Z,88.49
2023-11-25T16:27:52.764Z,88.59
2023-11-25T16:30:26.245Z,88.53
2023-11-25T16:32:56.925Z,88.24
2023-11-25T16:35:27.582Z,88.08
2023-11-25T16:37:58.127Z,88.20
2023-11-25T16:40:29.110Z,88.09
2023-11-25T16:43:02.499Z,88.42
2023-11-25T16:45:33.837Z,88.40
2023-11-25T16:48:05.789Z,88.11
2023-11-25T16:50:39.101Z,88.13
2023-11-25T16:53:10.175Z,88.28
2023-11-25T16:55:42.638Z,89.01
2023-11-25T16:58:15.476Z,88.39
2023-11-25T17:00:46.095Z,87.85
2023-11-25T17:03:16.887Z,87.61
2023-11-25T17:05:50.117Z,87.42
2023-11-25T17:08:22.141Z,87.39
2023-11-25T17:10:52.681Z,87.65
2023-11-25T17:13:26.289Z,87.60
2023-11-25T17:15:56.883Z,87.73
2023-11-25T17:18:29.097Z,87.74
2023-11-25T17:21:00.097Z,87.70
2023-11-25T17:23:30.697Z,88.03
2023-11-25T17:26:01.317Z,88.12
2023-11-25T17:28:31.929Z,88.36
2023-11-25T17:31:03.239Z,88.30
2023-11-25T17:33:35.418Z,88.31
2023-11-25T17:36:08.559Z,88.47
2023-11-25T17:38:39.778Z,88.00
2023-11-25T17:41:10.487Z,88.11
2023-11-25T17:43:41.095Z,87.87
2023-11-25T17:46:12.886Z,88.07
2023-11-25T17:48:46.380Z,88.06
2023-11-25T17:51:18.510Z,87.93
2023-11-25T17:53:49.288Z,87.69
2023-11-25T17:56:20.617Z,87.83
2023-11-25T17:58:51.506Z,87.76
2023-11-25T18:01:22.084Z,87.57
2023-11-25T18:03:53.337Z,87.60
2023-11-25T18:06:25.284Z,87.49
2023-11-25T18:08:55.875Z,87.68
2023-11-25T18:11:28.162Z,87.52
2023-11-25T18:14:00.303Z,87.23
2023-11-25T18:16:31.542Z,87.48
2023-11-25T18:19:04.284Z,87.44
2023-11-25T18:21:35.114Z,87.25
2023-11-25T18:24:06.723Z,87.31
2023-11-25T18:26:39.504Z,87.47
2023-11-25T18:29:10.227Z,87.26
2023-11-25T18:31:40.851Z,87.43
2023-11-25T18:34:13.332Z,86.59
2023-11-25T18:36:43.909Z,86.61
2023-11-25T18:39:15.298Z,86.41
2023-11-25T18:41:47.483Z,86.02
2023-11-25T18:44:18.518Z,85.90
2023-11-25T18:46:49.312Z,85.98
2023-11-25T18:49:20.396Z,85.14
2023-11-25T18:51:51.033Z,84.93
2023-11-25T18:54:23.095Z,83.65
2023-11-25T18:56:53.640Z,82.81
2023-11-25T18:59:25.609Z,81.52
2023-11-25T19:01:56.195Z,81.69
2023-11-25T19:04:26.740Z,81.38
2023-11-25T19:06:58.013Z,80.87
2023-11-25T19:09:28.554Z,81.23
2023-11-25T19:12:00.013Z,81.64
2023-11-25T19:14:33.013Z,82.19
2023-11-25T19:17:04.368Z,82.57
2023-11-25T19:19:37.117Z,82.92
2023-11-25T19:22:10.829Z,83.85
2023-11-25T19:24:40.282Z,84.80
2023-11-25T19:27:12.182Z,85.45
2023-11-25T19:29:46.019Z,85.78
2023-11-25T19:32:17.084Z,85.79
2023-11-25T19:34:47.693Z,86.02
2023-11-25T19:37:19.321Z,86.14
2023-11-25T19:39:49.851Z,86.30
2023-11-25T19:42:20.630Z,86.16
2023-11-25T19:44:53.298Z,86.07
2023-11-25T19:47:23.970Z,86.57
2023-11-25T19:49:54.700Z,86.66
2023-11-25T19:52:27.432Z,86.18
2023-11-25T19:54:59.452Z,86.18
2023-11-25T19:57:30.196Z,85.71
2023-11-25T20:00:00.848Z,85.54
2023-11-25T20:02:31.463Z,85.67
2023-11-25T20:05:02.238Z,85.79
2023-11-25T20:07:32.988Z,85.54
2023-11-25T20:10:05.029Z,85.41
2023-11-25T20:12:35.549Z,85.27
2023-11-25T20:15:07.291Z,85.10
2023-11-25T20:17:38.226Z,84.89
2023-11-25T20:20:10.984Z,85.01
2023-11-25T20:22:42.301Z,84.85
2023-11-25T20:25:13.332Z,84.88
2023-11-25T20:27:44.086Z,85.02
2023-11-25T20:30:15.643Z,84.56
2023-11-25T20:32:46.486Z,84.58
2023-11-25T20:35:17.148Z,84.58
2023-11-25T20:37:47.829Z,84.77
2023-11-25T20:40:18.447Z,84.98
2023-11-25T20:42:49.095Z,85.04
2023-11-25T20:45:20.012Z,84.70
2023-11-25T20:47:50.698Z,85.29
2023-11-25T20:50:24.120Z,85.53
2023-11-25T20:52:54.100Z,85.53
2023-11-25T20:55:26.580Z,85.50
2023-11-25T20:57:57.300Z,85.37
2023-11-25T21:00:29.733Z,85.76
2023-11-25T21:03:00.505Z,85.93
2023-11-25T21:05:33.511Z,85.88
2023-11-25T21:08:04.275Z,85.56
2023-11-25T21:10:35.422Z,86.00
2023-11-25T21:13:06.510Z,85.93
2023-11-25T21:15:37.538Z,85.90
2023-11-25T21:18:08.793Z,85.87
2023-11-25T21:20:41.177Z,86.05
2023-11-25T21:23:12.612Z,85.91
2023-11-25T21:25:43.295Z,85.66
2023-11-25T21:28:14.720Z,85.68
2023-11-25T21:30:46.984Z,85.28
2023-11-25T21:33:17.654Z,85.45
2023-11-25T21:35:50.738Z,84.99
2023-11-25T21:38:21.694Z,85.15
2023-11-25T21:40:52.095Z,85.24
2023-11-25T21:43:23.326Z,84.83
2023-11-25T21:45:55.132Z,84.53
2023-11-25T21:48:28.218Z,84.38
2023-11-25T21:50:59.472Z,83.88
2023-11-25T21:53:30.009Z,83.67
2023-11-25T21:56:01.005Z,83.18
2023-11-25T21:58:31.584Z,82.52
2023-11-25T22:01:05.987Z,82.47
2023-11-25T22:03:38.400Z,82.38
2023-11-25T22:06:09.876Z,82.02
2023-11-25T22:08:40.528Z,81.55
2023-11-25T22:11:11.325Z,81.21
2023-11-25T22:13:42.306Z,80.75
2023-11-25T22:16:12.829Z,80.12
2023-11-25T22:18:43.383Z,79.63
2023-11-25T22:21:14.063Z,78.59
2023-11-25T22:23:46.466Z,78.53
2023-11-25T22:26:22.197Z,77.94
2023-11-25T22:28:52.740Z,77.65
2023-11-25T22:31:23.488Z,80.44
2023-11-25T22:33:55.671Z,79.16
2023-11-25T22:36:28.551Z,77.60
2023-11-25T22:39:04.142Z,75.78
2023-11-25T22:41:35.133Z,75.78
2023-11-25T22:44:09.421Z,75.30
2023-11-25T22:46:41.824Z,75.52
2023-11-25T22:49:12.923Z,75.69
2023-11-25T22:51:43.638Z,76.14
2023-11-25T22:54:18.368Z,76.25
2023-11-25T22:56:51.689Z,75.84
2023-11-25T22:59:22.377Z,76.27
2023-11-25T23:01:59.131Z,76.47
2023-11-25T23:04:33.334Z,77.21
2023-11-25T23:07:04.149Z,77.15
2023-11-25T23:09:35.076Z,77.37
2023-11-25T23:12:06.887Z,77.64
2023-11-25T23:14:38.605Z,77.20
2023-11-25T23:17:10.392Z,76.14
2023-11-25T23:19:41.131Z,76.07
2023-11-25T23:22:11.975Z,76.49
2023-11-25T23:24:42.858Z,76.55
2023-11-25T23:27:15.138Z,76.28
2023-11-25T23:29:45.720Z,76.75
2023-11-25T23:32:16.533Z,76.93
2023-11-25T23:34:47.329Z,76.42
2023-11-25T23:37:18.102Z,77.03
2023-11-25T23:39:48.688Z,77.29
2023-11-25T23:42:19.316Z,77.23
2023-11-25T23:44:50.800Z,77.62
2023-11-25T23:47:21.568Z,77.31
2023-11-25T23:49:52.831Z,77.02
2023-11-25T23:52:25.899Z,77.28
2023-11-25T23:54:56.595Z,77.42
2023-11-25T23:57:27.273Z,78.00
2023-11-25T23:59:58.196Z,77.30
